Time;durP1;ratioP1;P1;durP2;ratioP2;P2;SDS_P1;SDS_P2;PMS_P1;PMS_P2;Temp;Humidity;BMP_temperature;BMP_pressure;BME280_temperature;BME280_humidity;BME280_pressure;Samples;Min_cycle;Max_cycle;Signal;HPM_P1;HPM_P2
2022/12/04 00:00:53;;;;;;;7.38;3.28;;;;;;;0.57;83.30;102021.44;5076470;27;110620;-31
2022/12/04 00:03:18;;;;;;;6.13;3.65;;;;;;;0.51;82.90;102019.66;5077587;27;97337;-31
2022/12/04 00:05:43;;;;;;;3.95;2.65;;;;;;;0.55;83.37;102025.88;5077193;27;96636;-31
2022/12/04 00:08:09;;;;;;;8.27;4.18;;;;;;;0.50;83.38;102019.66;5076710;27;104840;-32
2022/12/04 00:10:34;;;;;;;6.03;2.17;;;;;;;0.56;83.45;102017.88;5076090;27;114480;-32
2022/12/04 00:12:59;;;;;;;7.20;3.72;;;;;;;0.58;83.39;102028.56;5077127;27;97514;-32
2022/12/04 00:15:25;;;;;;;4.05;2.95;;;;;;;0.54;83.36;102011.66;5076952;27;96495;-31
2022/12/04 00:17:50;;;;;;;5.68;3.35;;;;;;;0.56;83.33;102015.22;5076757;27;96883;-32
2022/12/04 00:20:15;;;;;;;8.00;5.57;;;;;;;0.56;82.98;102017.00;5076452;27;97587;-31
2022/12/04 00:22:41;;;;;;;4.82;3.40;;;;;;;0.53;83.51;102022.34;5075926;27;98749;-31
2022/12/04 00:25:06;;;;;;;5.95;2.90;;;;;;;0.52;83.39;102020.53;5077024;27;96546;-31
2022/12/04 00:27:32;;;;;;;9.23;4.07;;;;;;;0.48;83.35;102013.44;5077465;27;96756;-30
2022/12/04 00:29:57;;;;;;;3.90;2.92;;;;;;;0.47;83.21;102025.00;5057571;27;113024;-31
2022/12/04 00:32:22;;;;;;;3.20;2.05;;;;;;;0.46;83.55;102021.44;5076575;27;99521;-31
2022/12/04 00:34:51;;;;;;;7.25;3.78;;;;;;;0.50;83.54;102017.00;5075823;27;96579;-31
2022/12/04 00:37:16;;;;;;;4.25;2.65;;;;;;;0.49;83.21;102008.13;5076186;27;96726;-32
2022/12/04 00:39:41;;;;;;;8.15;5.00;;;;;;;0.50;83.58;102007.25;5075995;27;114008;-31
2022/12/04 00:42:07;;;;;;;9.63;4.30;;;;;;;0.52;83.77;102010.75;5076303;27;99217;-31
2022/12/04 00:44:32;;;;;;;6.72;4.05;;;;;;;0.57;83.63;102010.75;5076144;27;104621;-33
2022/12/04 00:46:57;;;;;;;3.80;2.67;;;;;;;0.54;83.64;102005.44;5075960;27;104716;-32
2022/12/04 00:49:23;;;;;;;9.50;3.42;;;;;;;0.59;83.62;102006.31;5076030;27;114988;-30
2022/12/04 00:51:48;;;;;;;5.60;2.72;;;;;;;0.58;83.77;102008.09;5076581;27;99510;-31
2022/12/04 00:54:13;;;;;;;7.18;4.97;;;;;;;0.59;83.43;102006.31;5076399;27;96572;-32
2022/12/04 00:56:38;;;;;;;9.20;4.95;;;;;;;0.59;83.56;101998.31;5076065;27;107129;-32
2022/12/04 00:59:04;;;;;;;3.80;3.17;;;;;;;0.58;83.38;101999.22;5074725;27;116779;-33
2022/12/04 01:01:29;;;;;;;4.03;3.00;;;;;;;0.62;83.69;102000.97;5076207;27;97340;-31
2022/12/04 01:03:55;;;;;;;13.32;4.43;;;;;;;0.63;83.63;101992.97;5076168;27;96576;-31
2022/12/04 01:06:22;;;;;;;1.98;1.77;;;;;;;0.67;83.59;102003.63;5076193;27;96801;-32
2022/12/04 01:08:48;;;;;;;6.25;3.40;;;;;;;0.64;83.84;102004.53;5076088;27;98376;-31
2022/12/04 01:11:15;;;;;;;7.78;4.93;;;;;;;0.63;83.46;102008.09;5057380;27;99561;-33
2022/12/04 01:13:40;;;;;;;7.60;3.65;;;;;;;0.59;83.46;102009.00;5057833;27;96641;-31
2022/12/04 01:16:06;;;;;;;8.70;4.10;;;;;;;0.58;83.82;102002.78;5076589;27;96713;-32
2022/12/04 01:18:31;;;;;;;11.98;3.22;;;;;;;0.54;83.88;102008.09;5075401;27;97904;-31
2022/12/04 01:20:56;;;;;;;7.22;3.05;;;;;;;0.49;84.03;102008.13;5074934;27;113431;-31
2022/12/04 01:23:22;;;;;;;9.70;4.93;;;;;;;0.51;83.82;102005.47;5074990;27;97757;-30
2022/12/04 01:25:56;;;;;;;3.15;2.65;;;;;;;0.48;83.66;102029.44;5076065;27;96763;-32
2022/12/04 01:28:22;;;;;;;5.38;3.58;;;;;;;0.46;83.76;102010.78;5057041;27;100884;-31
2022/12/04 01:30:58;;;;;;;6.63;4.03;;;;;;;0.48;83.73;102009.03;5057270;27;101108;-31
2022/12/04 01:33:23;;;;;;;5.90;3.72;;;;;;;0.49;83.95;102004.56;5057492;27;96660;-31
2022/12/04 01:35:53;;;;;;;9.57;4.35;;;;;;;0.48;83.71;102006.34;5075988;27;96767;-32
2022/12/04 01:38:18;;;;;;;9.00;3.63;;;;;;;0.47;83.63;102003.69;5057051;27;100819;-31
2022/12/04 01:40:43;;;;;;;4.95;3.05;;;;;;;0.42;83.27;102001.91;5075128;27;119467;-31
2022/12/04 01:43:11;;;;;;;8.88;4.65;;;;;;;0.41;83.83;101999.25;5075614;27;96465;-31
2022/12/04 01:45:46;;;;;;;8.68;4.10;;;;;;;0.41;83.71;102008.13;5057037;27;96920;-31
2022/12/04 01:48:31;;;;;;;9.90;5.35;;;;;;;0.41;84.02;102000.13;5074011;27;98536;-32
2022/12/04 01:51:19;;;;;;;8.13;5.32;;;;;;;0.44;83.81;102003.69;5075748;27;97886;-32
2022/12/04 01:53:51;;;;;;;3.22;2.40;;;;;;;0.41;83.99;101996.59;5046803;27;98038;-31
2022/12/04 01:56:18;;;;;;;;;;;;;;;0.42;83.60;101998.34;5076032;27;96779;-31
2022/12/04 01:58:49;;;;;;;0.43;0.43;;;;;;;0.42;84.01;102001.91;5075546;27;96977;-31
2022/12/04 02:01:15;;;;;;;6.00;3.90;;;;;;;0.40;83.82;102001.00;5075308;27;97693;-31
2022/12/04 02:03:40;;;;;;;11.80;4.63;;;;;;;0.42;83.88;102001.91;5075021;27;102991;-32
2022/12/04 02:06:06;;;;;;;2.53;1.48;;;;;;;0.39;83.84;102015.22;5076000;27;96742;-32
2022/12/04 02:08:33;;;;;;;7.47;4.55;;;;;;;0.38;83.87;102004.56;5075041;27;97936;-31
2022/12/04 02:11:25;;;;;;;14.77;5.60;;;;;;;0.39;83.89;102009.91;5056602;27;100835;-31
2022/12/04 02:14:18;;;;;;;5.47;3.53;;;;;;;0.39;83.88;102001.03;5075143;27;96548;-31
2022/12/04 02:16:57;;;;;;;6.30;3.55;;;;;;;0.37;83.97;102005.47;5056757;27;97047;-31
2022/12/04 02:19:55;;;;;;;3.40;2.15;;;;;;;0.38;83.89;102007.22;5056529;27;101324;-30
2022/12/04 02:22:54;;;;;;;9.23;5.75;;;;;;;0.40;83.78;102010.78;5056153;27;100852;-32
2022/12/04 02:25:41;;;;;;;5.53;3.72;;;;;;;0.42;83.90;102003.69;5030418;27;96873;-31
2022/12/04 02:28:24;;;;;;;5.15;3.92;;;;;;;0.44;83.99;101995.69;5056835;27;96738;-31
2022/12/04 02:30:58;;;;;;;8.48;3.38;;;;;;;0.41;84.27;101986.81;5056455;27;101128;-31
2022/12/04 02:33:40;;;;;;;11.43;5.97;;;;;;;0.44;83.96;101988.56;5056648;27;101270;-31
2022/12/04 02:36:11;;;;;;;4.35;2.13;;;;;;;0.50;84.13;101993.00;5056711;27;96564;-31
2022/12/04 02:38:42;;;;;;;8.80;3.63;;;;;;;0.54;84.22;101985.00;5056763;27;96701;-31
2022/12/04 02:41:36;;;;;;;13.20;4.55;;;;;;;0.49;84.00;101977.91;5055675;27;101015;-30
2022/12/04 02:44:13;;;;;;;6.82;3.08;;;;;;;0.47;84.28;101971.69;5056181;27;100782;-30
2022/12/04 02:46:42;;;;;;;5.13;3.05;;;;;;;0.48;84.33;101973.44;5056619;27;96704;-31
2022/12/04 02:49:17;;;;;;;10.20;4.35;;;;;;;0.50;84.52;101971.69;5056559;27;96879;-31
2022/12/04 02:51:45;;;;;;;10.00;5.53;;;;;;;0.48;84.42;101978.78;5056204;27;100859;-31
2022/12/04 02:54:23;;;;;;;7.43;4.97;;;;;;;0.54;84.51;101979.66;5055964;27;100583;-32
2022/12/04 02:56:51;;;;;;;12.45;4.63;;;;;;;0.55;84.48;101981.47;5056358;27;96466;-31
2022/12/04 02:59:33;;;;;;;10.80;5.28;;;;;;;0.50;84.36;101979.69;5056962;27;96841;-30
2022/12/04 03:02:06;;;;;;;4.85;3.55;;;;;;;0.48;84.31;101976.13;5059530;27;101719;-31
2022/12/04 03:04:32;;;;;;;7.82;4.78;;;;;;;0.48;84.48;101978.78;5059745;27;101341;-31
2022/12/04 03:07:31;;;;;;;5.25;4.35;;;;;;;0.50;84.29;101975.25;5059045;27;96616;-30
2022/12/04 03:10:02;;;;;;;13.48;4.22;;;;;;;0.46;84.42;101975.25;5059677;27;96802;-31
2022/12/04 03:12:42;;;;;;;9.68;3.97;;;;;;;0.48;84.47;101971.69;5059158;27;103517;-31
2022/12/04 03:15:15;;;;;;;7.07;4.47;;;;;;;0.51;84.28;101971.69;5059250;27;100948;-33
2022/12/04 03:17:54;;;;;;;3.72;2.88;;;;;;;0.50;84.18;101980.59;5059566;27;96642;-31
2022/12/04 03:20:22;;;;;;;6.30;3.17;;;;;;;0.48;84.24;101978.78;5059280;27;96916;-31
2022/12/04 03:22:54;;;;;;;9.38;4.00;;;;;;;0.48;84.33;101979.69;5058694;27;100689;-31
2022/12/04 03:25:24;;;;;;;8.60;4.05;;;;;;;0.47;84.37;101977.03;5059507;27;100540;-31
2022/12/04 03:27:59;;;;;;;7.57;3.88;;;;;;;0.49;84.35;101972.59;5059408;27;96611;-31
2022/12/04 03:30:24;;;;;;;8.20;5.40;;;;;;;0.48;84.16;101969.03;5059664;27;96733;-31
2022/12/04 03:33:01;;;;;;;5.32;2.17;;;;;;;0.44;84.29;101967.25;5076972;27;99477;-31
2022/12/04 03:35:43;;;;;;;4.43;2.10;;;;;;;0.45;84.33;101965.47;5059096;27;100878;-31
2022/12/04 03:38:40;;;;;;;9.10;3.88;;;;;;;0.47;84.23;101961.91;5077848;27;96615;-31
2022/12/04 03:41:22;;;;;;;5.88;2.92;;;;;;;0.51;84.52;101960.16;5054904;27;96838;-31
2022/12/04 03:43:52;;;;;;;8.88;5.28;;;;;;;0.49;84.58;101951.25;5059056;27;101016;-31
2022/12/04 03:46:30;;;;;;;3.70;2.50;;;;;;;0.52;84.27;101956.56;5058749;27;101060;-32
2022/12/04 03:49:03;;;;;;;9.30;4.38;;;;;;;0.48;84.41;101955.72;5059269;27;96610;-31
2022/12/04 03:51:37;;;;;;;8.13;4.70;;;;;;;0.55;84.73;101949.47;5059444;27;96854;-31
2022/12/04 03:54:10;;;;;;;7.80;3.60;;;;;;;0.55;84.61;101949.47;5058732;27;101078;-31
2022/12/04 03:56:41;;;;;;;7.10;3.38;;;;;;;0.52;84.57;101949.47;5058664;27;100793;-31
2022/12/04 03:59:11;;;;;;;10.68;4.57;;;;;;;0.52;84.33;101944.13;5058174;27;96723;-32
2022/12/04 04:01:47;;;;;;;9.65;4.10;;;;;;;0.51;84.20;101947.69;5058879;27;96731;-30
2022/12/04 04:04:20;;;;;;;16.20;5.28;;;;;;;0.43;84.57;101941.50;5058619;27;100738;-32
2022/12/04 04:07:01;;;;;;;10.32;5.13;;;;;;;0.43;84.40;101941.50;5077156;27;97891;-31
2022/12/04 04:09:33;;;;;;;4.35;2.97;;;;;;;0.41;84.53;101937.97;5058732;27;96650;-31
2022/12/04 04:12:06;;;;;;;6.25;3.85;;;;;;;0.36;84.45;101937.97;5057911;27;96712;-32
2022/12/04 04:25:52;;;;;;;7.90;4.25;;;;;;;0.49;84.61;101941.47;5076661;27;97110;-31
2022/12/04 04:28:36;;;;;;;7.45;3.95;;;;;;;0.46;84.37;101940.63;5058081;27;100920;-31
2022/12/04 04:31:07;;;;;;;7.10;2.85;;;;;;;0.45;84.63;101945.03;5058282;27;96775;-31
2022/12/04 04:33:40;;;;;;;6.63;3.90;;;;;;;0.47;84.62;101955.69;5058478;27;96685;-31
2022/12/04 04:36:30;;;;;;;5.43;4.07;;;;;;;0.47;84.75;101947.69;5058066;27;100688;-31
2022/12/04 04:39:23;;;;;;;5.40;2.38;;;;;;;0.51;84.67;101953.03;5043637;27;99124;-32
2022/12/04 04:41:53;;;;;;;6.10;3.70;;;;;;;0.42;84.23;101945.94;5070020;27;96731;-31
2022/12/04 04:44:22;;;;;;;6.78;3.85;;;;;;;0.40;84.30;101938.81;5058591;27;96579;-32
2022/12/04 04:46:57;;;;;;;6.18;3.60;;;;;;;0.42;84.98;101947.72;5076255;27;98482;-32
2022/12/04 04:49:26;;;;;;;3.67;3.05;;;;;;;0.42;84.22;101945.03;5057824;27;100929;-31
2022/12/04 04:51:53;;;;;;;14.90;4.00;;;;;;;0.41;84.74;101944.16;5057518;27;96673;-31
2022/12/04 04:54:20;;;;;;;6.47;3.97;;;;;;;0.41;84.77;101952.16;5057890;27;96883;-31
2022/12/04 04:56:46;;;;;;;7.45;4.95;;;;;;;0.44;85.13;101953.06;5057661;27;101007;-31
2022/12/04 04:59:13;;;;;;;6.18;3.83;;;;;;;0.48;84.68;101947.72;5057792;27;98930;-31
2022/12/04 05:01:40;;;;;;;4.53;3.42;;;;;;;0.47;84.47;101953.03;5057698;27;96604;-31
2022/12/04 05:04:06;;;;;;;4.97;3.70;;;;;;;0.50;84.94;101953.94;5058071;27;96532;-31
2022/12/04 05:06:31;;;;;;;4.38;3.38;;;;;;;0.50;85.00;101947.69;5057421;27;100904;-31
2022/12/04 05:08:57;;;;;;;10.55;4.65;;;;;;;0.48;84.96;101949.47;5076474;27;97954;-32
2022/12/04 05:11:22;;;;;;;5.10;3.53;;;;;;;0.48;85.12;101954.78;5076183;27;98396;-31
2022/12/04 05:13:47;;;;;;;5.72;4.05;;;;;;;0.48;85.10;101952.13;5076236;27;96879;-31
2022/12/04 05:16:14;;;;;;;4.68;3.97;;;;;;;0.46;85.09;101944.16;5075162;27;103069;-32
2022/12/04 05:19:52;;;;;;;7.78;4.03;;;;;;;0.49;84.94;101943.25;5056803;27;101324;-31
2022/12/04 05:21:26;;;;;;;3.35;2.83;;;;;;;0.56;84.90;101953.03;5075616;27;96799;-31
2022/12/04 05:23:51;;;;;;;3.28;2.40;;;;;;;0.48;84.88;101966.38;5076291;27;96537;-31
2022/12/04 05:26:16;;;;;;;8.70;4.80;;;;;;;0.54;84.92;101970.78;5075459;27;107248;-31
2022/12/04 05:28:41;;;;;;;9.77;5.07;;;;;;;0.53;84.90;101964.59;5075457;27;97872;-31
2022/12/04 05:31:07;;;;;;;7.97;4.25;;;;;;;0.54;85.09;101957.47;5075837;27;96654;-31
2022/12/04 05:33:32;;;;;;;6.00;2.97;;;;;;;0.53;84.93;101958.38;5076543;27;96724;-32
2022/12/04 05:36:02;;;;;;;7.60;5.30;;;;;;;0.54;84.87;101962.78;5075769;27;97192;-31
2022/12/04 05:38:27;;;;;;;2.97;2.47;;;;;;;0.54;85.35;101961.00;5075580;27;97792;-31
2022/12/04 05:40:53;;;;;;;7.43;4.43;;;;;;;0.57;85.01;101961.03;5075333;27;96564;-32
2022/12/04 05:43:18;;;;;;;4.25;3.35;;;;;;;0.52;85.07;101969.91;5075381;27;96852;-31
2022/12/04 05:45:43;;;;;;;4.15;3.13;;;;;;;0.51;85.46;101965.47;5075229;27;99250;-30
2022/12/04 05:48:09;;;;;;;6.45;3.50;;;;;;;0.55;85.42;101968.13;5075757;27;97295;-30
2022/12/04 05:50:34;;;;;;;5.10;4.30;;;;;;;0.58;85.01;101961.91;5075754;27;96800;-31
2022/12/04 05:52:59;;;;;;;5.47;3.17;;;;;;;0.55;85.18;101956.56;5075856;27;96863;-32
2022/12/04 05:55:25;;;;;;;5.63;4.05;;;;;;;0.55;85.10;101961.88;5075350;27;103474;-31
2022/12/04 05:57:50;;;;;;;9.50;5.35;;;;;;;0.57;85.61;101970.78;5075584;27;97374;-31
2022/12/04 06:00:16;;;;;;;4.75;3.00;;;;;;;0.58;85.40;101961.91;5075557;27;96479;-31
2022/12/04 06:02:42;;;;;;;8.77;5.00;;;;;;;0.60;85.50;101962.78;5056879;27;96829;-30
2022/12/04 06:05:07;;;;;;;9.85;4.30;;;;;;;0.60;85.25;101961.00;5074827;27;97981;-30
2022/12/04 06:07:33;;;;;;;4.15;3.33;;;;;;;0.60;85.38;101958.34;5075322;27;99313;-31
2022/12/04 06:09:58;;;;;;;5.35;3.75;;;;;;;0.62;85.18;101960.97;5075331;27;96623;-31
2022/12/04 06:12:23;;;;;;;10.10;5.82;;;;;;;0.63;85.44;101960.13;5075337;27;96870;-31
2022/12/04 06:14:49;;;;;;;19.13;6.05;;;;;;;0.62;85.11;101958.31;5075108;27;98110;-31
2022/12/04 06:17:14;;;;;;;8.60;3.53;;;;;;;0.59;85.29;101963.66;5074710;27;97818;-32
2022/12/04 06:19:39;;;;;;;11.85;5.72;;;;;;;0.59;85.45;101961.00;5074949;27;97263;-31
2022/12/04 06:22:04;;;;;;;6.97;4.50;;;;;;;0.60;85.63;101954.78;5075070;27;97204;-33
2022/12/04 06:24:30;;;;;;;15.13;3.55;;;;;;;0.61;85.24;101959.22;5075092;27;97360;-31
2022/12/04 06:26:57;;;;;;;5.43;3.15;;;;;;;0.58;85.53;101954.78;5074972;27;97787;-31
2022/12/04 06:29:22;;;;;;;3.60;3.13;;;;;;;0.57;85.11;101954.78;5056162;27;96552;-31
2022/12/04 06:31:48;;;;;;;8.50;5.32;;;;;;;0.53;85.60;101950.38;5075189;27;96866;-31
2022/12/04 06:34:13;;;;;;;6.15;4.53;;;;;;;0.56;85.34;101953.03;5075041;27;98689;-31
2022/12/04 06:36:38;;;;;;;10.70;5.82;;;;;;;0.55;85.35;101951.22;5078554;27;97787;-31
2022/12/04 06:39:04;;;;;;;4.43;2.75;;;;;;;0.55;85.71;101951.22;5078952;27;96550;-31
2022/12/04 06:41:30;;;;;;;8.52;4.22;;;;;;;0.58;85.40;101967.25;5078583;27;96743;-32
2022/12/04 06:43:56;;;;;;;6.22;4.00;;;;;;;0.56;85.78;101961.00;5078077;27;99733;-32
2022/12/04 06:46:23;;;;;;;7.80;4.65;;;;;;;0.58;85.96;101956.56;5060088;27;100916;-32
2022/12/04 06:48:49;;;;;;;6.22;4.22;;;;;;;0.58;85.55;101952.13;5059934;27;96581;-31
2022/12/04 06:51:20;;;;;;;7.07;4.90;;;;;;;0.60;85.40;101960.13;5060063;27;96920;-31
2022/12/04 06:53:46;;;;;;;4.72;3.80;;;;;;;0.59;85.67;101958.34;5059215;27;99040;-32
2022/12/04 06:56:16;;;;;;;3.65;3.08;;;;;;;0.58;85.48;101962.78;5059190;27;101311;-31
2022/12/04 06:58:45;;;;;;;8.35;5.20;;;;;;;0.55;86.01;101948.56;5059900;27;96638;-31
2022/12/04 07:01:14;;;;;;;6.72;3.42;;;;;;;0.52;85.79;101951.25;5078216;27;96832;-31
2022/12/04 07:03:41;;;;;;;10.05;5.10;;;;;;;0.54;85.52;101949.47;5059535;27;101128;-32
2022/12/04 07:06:23;;;;;;;8.20;3.92;;;;;;;0.55;85.81;101965.47;5059417;27;101186;-31
2022/12/04 07:08:51;;;;;;;10.00;4.78;;;;;;;0.51;85.48;101955.69;5059969;27;96541;-31
2022/12/04 07:11:17;;;;;;;11.75;5.65;;;;;;;0.54;85.57;101955.69;5059920;27;96836;-31
2022/12/04 07:13:42;;;;;;;6.53;3.60;;;;;;;0.47;85.86;101953.03;5059414;27;100966;-32
2022/12/04 07:16:11;;;;;;;10.55;4.68;;;;;;;0.46;85.85;101956.59;5077886;27;97829;-32
2022/12/04 07:18:37;;;;;;;5.07;3.33;;;;;;;0.46;86.08;101961.94;5058707;27;96854;-31
2022/12/04 07:21:07;;;;;;;5.55;3.67;;;;;;;0.51;86.01;101960.16;5078134;27;96785;-32
2022/12/04 07:23:32;;;;;;;7.43;4.32;;;;;;;0.49;85.86;101960.13;5059105;27;100814;-31
2022/12/04 07:26:03;;;;;;;15.90;5.55;;;;;;;0.49;85.66;101956.59;5059117;27;101320;-31
2022/12/04 07:28:28;;;;;;;8.68;4.57;;;;;;;0.47;86.24;101958.38;5059658;27;96865;-31
2022/12/04 07:30:53;;;;;;;5.82;3.13;;;;;;;0.47;86.10;101959.25;5078185;27;96793;-31
2022/12/04 07:33:19;;;;;;;11.02;4.47;;;;;;;0.47;86.11;101969.91;5077668;27;97973;-31
2022/12/04 07:35:44;;;;;;;8.90;4.10;;;;;;;0.47;86.13;101967.25;5077940;27;102061;-32
2022/12/04 07:38:09;;;;;;;3.72;3.13;;;;;;;0.46;86.00;101959.28;5077812;27;96641;-31
2022/12/04 07:40:36;;;;;;;4.18;3.33;;;;;;;0.48;85.95;101970.78;5077832;27;96949;-31
2022/12/04 07:43:01;;;;;;;4.03;2.85;;;;;;;0.47;86.14;101964.56;5058328;27;100873;-31
2022/12/04 07:45:27;;;;;;;5.78;2.97;;;;;;;0.50;85.71;101964.59;5076892;27;98926;-32
2022/12/04 07:47:52;;;;;;;3.92;2.58;;;;;;;0.52;85.99;101972.56;5076801;27;96567;-30
2022/12/04 07:50:17;;;;;;;10.80;6.70;;;;;;;0.50;85.77;101969.94;5077227;27;96792;-32
2022/12/04 07:52:43;;;;;;;5.95;4.53;;;;;;;0.53;86.11;101971.69;5077344;27;100639;-31
2022/12/04 07:55:08;;;;;;;4.70;3.97;;;;;;;0.54;85.87;101978.78;5077199;27;99001;-31
2022/12/04 07:57:33;;;;;;;5.53;4.60;;;;;;;0.52;85.67;101980.56;5077336;27;96587;-32
2022/12/04 07:59:59;;;;;;;7.28;4.18;;;;;;;0.51;85.53;101984.13;5077786;27;96832;-31
2022/12/04 08:02:25;;;;;;;3.63;2.53;;;;;;;0.54;85.64;101986.78;5077237;27;97809;-32
2022/12/04 08:04:50;;;;;;;8.05;3.75;;;;;;;0.56;85.90;101987.69;5058474;27;100826;-31
2022/12/04 08:07:17;;;;;;;5.47;3.05;;;;;;;0.55;85.75;101985.88;5076295;27;99185;-31
2022/12/04 08:09:42;;;;;;;13.80;4.32;;;;;;;0.59;85.90;101987.66;5058768;27;96801;-31
2022/12/04 08:12:08;;;;;;;13.18;5.30;;;;;;;0.59;85.82;101985.00;5077073;27;97955;-31
2022/12/04 08:14:33;;;;;;;4.05;2.92;;;;;;;0.60;85.80;101987.66;5076734;27;102739;-32
2022/12/04 08:16:58;;;;;;;11.13;4.07;;;;;;;0.61;85.77;101985.88;5077343;27;96757;-31
2022/12/04 08:19:24;;;;;;;11.50;4.35;;;;;;;0.62;85.76;101995.63;5076783;27;96900;-31
2022/12/04 08:21:49;;;;;;;9.23;4.50;;;;;;;0.53;85.72;101985.91;5076033;27;99157;-31
2022/12/04 08:24:15;;;;;;;5.28;3.22;;;;;;;0.58;85.91;101993.91;5076973;27;99556;-31
2022/12/04 08:26:40;;;;;;;6.35;4.20;;;;;;;0.58;85.66;101988.56;5077082;27;96582;-32
2022/12/04 08:29:05;;;;;;;7.28;5.13;;;;;;;0.59;85.72;101987.66;5077102;27;96756;-32
2022/12/04 08:31:33;;;;;;;5.53;3.50;;;;;;;0.59;85.45;101993.00;5076157;27;96948;-31
2022/12/04 08:34:01;;;;;;;5.80;3.03;;;;;;;0.62;86.06;101991.22;5057998;27;101489;-32
2022/12/04 08:36:27;;;;;;;6.30;3.63;;;;;;;0.63;85.76;102003.66;5058417;27;96545;-31
2022/12/04 08:38:53;;;;;;;5.00;2.60;;;;;;;0.63;85.78;101995.66;5076987;27;96763;-31
2022/12/04 08:41:22;;;;;;;8.45;4.32;;;;;;;0.65;85.86;102006.31;5076569;27;97915;-31
2022/12/04 08:43:48;;;;;;;6.18;3.95;;;;;;;0.64;85.49;102004.53;5057769;27;100987;-30
2022/12/04 08:46:17;;;;;;;12.23;6.47;;;;;;;0.63;85.63;102003.66;5076751;27;96550;-31
2022/12/04 08:48:43;;;;;;;5.30;3.13;;;;;;;0.59;85.46;102004.53;5058306;27;96928;-31
2022/12/04 08:51:15;;;;;;;10.25;4.45;;;;;;;0.59;85.65;102003.66;5057824;27;101608;-33
2022/12/04 08:53:41;;;;;;;7.05;3.58;;;;;;;0.59;85.53;102006.31;5057841;27;100517;-31
2022/12/04 08:56:06;;;;;;;2.45;2.22;;;;;;;0.63;85.67;102008.97;5076189;27;96576;-31
2022/12/04 08:58:32;;;;;;;3.63;2.28;;;;;;;0.63;85.49;102008.97;5076041;27;96803;-32
2022/12/04 09:01:08;;;;;;;8.40;3.67;;;;;;;0.71;85.80;102024.97;5076221;27;97454;-31
2022/12/04 09:03:35;;;;;;;7.38;3.88;;;;;;;0.73;85.57;102027.63;5076038;27;99371;-31
2022/12/04 09:06:03;;;;;;;4.53;2.40;;;;;;;0.73;85.64;102022.31;5057988;27;96637;-32
2022/12/04 09:08:30;;;;;;;8.00;4.93;;;;;;;0.73;85.60;102016.97;5057970;27;96795;-31
2022/12/04 09:11:02;;;;;;;8.48;4.55;;;;;;;0.69;85.84;102021.44;5057466;27;101463;-31
2022/12/04 09:13:27;;;;;;;5.93;3.70;;;;;;;0.70;85.15;102015.19;5057891;27;100639;-31
2022/12/04 09:15:52;;;;;;;7.45;4.28;;;;;;;0.72;85.06;102021.41;5076237;27;96605;-32
2022/12/04 09:18:17;;;;;;;9.40;4.57;;;;;;;0.70;85.28;102009.88;5075504;27;96773;-31
2022/12/04 09:20:43;;;;;;;7.45;4.60;;;;;;;0.71;85.32;102019.63;5075766;27;97289;-31
2022/12/04 09:23:08;;;;;;;4.55;2.78;;;;;;;0.73;85.44;102008.97;5075385;27;99503;-32
2022/12/04 09:25:35;;;;;;;8.15;3.70;;;;;;;0.70;85.23;102015.19;5075878;27;96554;-31
2022/12/04 09:28:01;;;;;;;10.45;4.45;;;;;;;0.73;85.57;102007.19;5057618;27;96716;-31
2022/12/04 09:30:26;;;;;;;5.90;4.13;;;;;;;0.73;85.62;102020.50;5075555;27;97871;-31
2022/12/04 09:32:51;;;;;;;13.23;3.92;;;;;;;0.73;85.35;102012.50;5075777;27;97283;-31
2022/12/04 09:35:17;;;;;;;8.60;3.58;;;;;;;0.74;85.19;102010.72;5075763;27;96676;-31
2022/12/04 09:37:42;;;;;;;12.63;6.63;;;;;;;0.76;85.65;102011.63;5076337;27;96819;-31
2022/12/04 09:40:28;;;;;;;5.60;4.45;;;;;;;0.77;85.43;102002.75;5075340;27;100381;-32
2022/12/04 09:43:10;;;;;;;7.38;4.75;;;;;;;0.79;85.52;102008.97;5075261;27;99168;-32
2022/12/04 09:45:47;;;;;;;9.35;5.30;;;;;;;0.77;85.28;102008.06;5056911;27;96650;-31
2022/12/04 09:48:16;;;;;;;5.07;3.72;;;;;;;0.79;85.28;102012.50;5057255;27;96679;-32
2022/12/04 09:50:43;;;;;;;18.15;7.15;;;;;;;0.82;85.36;102012.50;5056893;27;101177;-31
2022/12/04 09:53:14;;;;;;;19.10;9.43;;;;;;;0.81;85.38;102008.06;5056926;27;100882;-31
2022/12/04 09:55:50;;;;;;;7.95;6.30;;;;;;;0.82;85.74;102017.84;5057466;27;96512;-33
2022/12/04 09:58:24;;;;;;;12.35;4.95;;;;;;;0.84;85.51;102021.38;5057392;27;96718;-33
2022/12/04 10:00:52;;;;;;;7.28;4.35;;;;;;;0.82;85.35;102015.16;5075643;27;98023;-31
2022/12/04 10:03:20;;;;;;;10.18;5.80;;;;;;;0.84;85.25;102015.16;5057141;27;100895;-31
2022/12/04 10:06:11;;;;;;;10.10;5.32;;;;;;;0.90;85.50;102008.91;5056766;27;96726;-31
2022/12/04 10:08:42;;;;;;;5.97;2.03;;;;;;;0.91;85.32;102018.72;5057096;27;96709;-31
2022/12/04 10:11:27;;;;;;;5.10;3.85;;;;;;;0.93;85.26;102014.22;5059132;27;103842;-31
2022/12/04 10:14:00;;;;;;;12.38;5.38;;;;;;;0.90;85.58;102008.91;5078884;27;97889;-32
2022/12/04 10:16:44;;;;;;;8.80;3.67;;;;;;;0.93;85.22;102001.81;5079109;27;96633;-30
2022/12/04 10:19:36;;;;;;;2.22;2.05;;;;;;;0.92;85.75;102012.47;5060380;27;96708;-31
2022/12/04 10:22:04;;;;;;;;;;;;;;;0.98;85.61;102013.34;5060272;27;101693;-30
2022/12/04 10:24:42;;;;;;;2.45;1.90;;;;;;;0.93;85.28;102001.81;5078859;27;97799;-31
2022/12/04 10:27:16;;;;;;;1.45;1.33;;;;;;;0.96;85.17;102012.47;5078847;27;96468;-31
2022/12/04 10:29:48;;;;;;;8.52;4.20;;;;;;;0.96;85.28;102004.47;5060779;27;96758;-31
2022/12/04 10:32:19;;;;;;;4.57;2.70;;;;;;;0.95;85.20;102004.47;5060191;27;100852;-31
2022/12/04 10:34:47;;;;;;;7.23;2.97;;;;;;;0.96;85.21;102004.47;5059921;27;100775;-33
2022/12/04 10:37:14;;;;;;;7.00;4.32;;;;;;;0.95;85.22;102004.47;5059706;27;96533;-32
2022/12/04 10:39:54;;;;;;;8.57;4.22;;;;;;;0.99;85.25;102007.09;5078701;27;96751;-31
2022/12/04 10:42:30;;;;;;;3.50;2.53;;;;;;;0.98;85.28;102009.81;5078352;27;99249;-31
2022/12/04 10:44:55;;;;;;;16.73;9.38;;;;;;;1.01;84.91;101992.00;5078411;27;99031;-31
2022/12/04 10:47:23;;;;;;;6.97;5.03;;;;;;;1.01;85.23;101996.44;5078574;27;96703;-31
2022/12/04 10:49:57;;;;;;;4.60;2.90;;;;;;;1.02;85.10;101992.88;5078599;27;96756;-31
2022/12/04 10:52:22;;;;;;;5.60;3.95;;;;;;;1.01;84.82;101999.13;5059666;27;100775;-31
2022/12/04 10:54:56;;;;;;;10.57;4.93;;;;;;;1.04;84.93;101999.09;5078642;27;97349;-30
2022/12/04 10:57:34;;;;;;;7.70;5.57;;;;;;;1.06;85.07;101995.53;5060172;27;96466;-32
2022/12/04 11:00:00;;;;;;;8.35;3.80;;;;;;;1.10;84.89;101990.16;5059773;27;96817;-31
2022/12/04 11:02:28;;;;;;;6.05;4.30;;;;;;;1.12;85.00;101975.03;5077488;27;99302;-31
2022/12/04 11:04:58;;;;;;;9.30;4.35;;;;;;;1.15;85.21;101978.59;5059602;27;101368;-31
2022/12/04 11:07:26;;;;;;;8.93;3.55;;;;;;;1.14;84.90;101978.59;5078448;27;96509;-31
2022/12/04 11:10:05;;;;;;;9.20;4.60;;;;;;;1.16;84.43;101979.47;5059714;27;96664;-30
2022/12/04 11:12:32;;;;;;;7.00;3.45;;;;;;;1.17;84.98;101983.91;5059301;27;101055;-31
2022/12/04 11:15:06;;;;;;;9.35;4.75;;;;;;;1.15;85.00;101980.38;5059426;27;101154;-32
2022/12/04 11:17:32;;;;;;;5.70;2.40;;;;;;;1.17;84.88;101981.25;5078277;27;96458;-31
2022/12/04 11:20:04;;;;;;;3.05;2.28;;;;;;;1.15;84.93;101972.38;5078095;27;96764;-31
2022/12/04 11:22:30;;;;;;;;;;;;;;;1.14;84.43;101979.47;5059193;27;100936;-31
2022/12/04 11:24:57;;;;;;;6.32;4.57;;;;;;;1.10;84.91;101972.41;5059085;27;100831;-32
2022/12/04 11:27:33;;;;;;;13.43;5.35;;;;;;;1.14;84.87;101984.81;5058957;27;96574;-31
2022/12/04 11:30:12;;;;;;;6.68;5.20;;;;;;;1.12;85.07;101978.63;5077729;27;96700;-31
2022/12/04 11:32:38;;;;;;;3.30;2.65;;;;;;;1.10;85.09;101964.41;5059126;27;101850;-31
2022/12/04 11:35:16;;;;;;;5.45;3.58;;;;;;;1.10;84.60;101975.06;5077551;27;97850;-32
2022/12/04 11:37:52;;;;;;;3.50;2.42;;;;;;;1.07;84.58;101975.06;5077688;27;96579;-30
2022/12/04 11:40:19;;;;;;;5.30;2.28;;;;;;;1.04;84.32;101972.41;5059484;27;96603;-30
2022/12/04 11:42:56;;;;;;;5.32;2.85;;;;;;;0.98;84.07;101968.00;5058953;27;100976;-31
2022/12/04 11:45:25;;;;;;;3.13;2.83;;;;;;;1.03;84.76;101963.53;5059179;27;101002;-31
2022/12/04 11:47:55;;;;;;;5.88;3.22;;;;;;;1.02;84.48;101960.84;5077389;27;101977;-31
2022/12/04 11:50:58;;;;;;;6.57;3.22;;;;;;;1.01;84.25;101959.97;5059022;27;96520;-30
2022/12/04 11:53:37;;;;;;;2.00;1.27;;;;;;;1.00;84.29;101957.31;5076665;27;99424;-32